Time;durP1;ratioP1;P1;durP2;ratioP2;P2;SDS_P1;SDS_P2;PMS_P1;PMS_P2;Temp;Humidity;BMP_temperature;BMP_pressure;BME280_temperature;BME280_humidity;BME280_pressure;Samples;Min_cycle;Max_cycle;Signal;HPM_P1;HPM_P2
2021/09/20 00:00:38;;;;;;;;;;;;;;;;;;2096448;28;45560;-87
2021/09/20 00:01:39;;;;;;;;;;;;;;;;;;2096489;28;44497;-87
2021/09/20 00:02:44;;;;;;;;;;;;;;;;;;2096259;28;45348;-88
2021/09/20 00:03:46;;;;;;;;;;;;;;;;;;2096334;28;44429;-89
2021/09/20 00:04:48;;;;;;;;;;;;;;;;;;2096286;28;45356;-87
2021/09/20 00:05:50;;;;;;;;;;;;;;;;;;2096914;28;43586;-86
2021/09/20 00:06:51;;;;;;;;;;;;;;;;;;2095781;28;44389;-86
2021/09/20 00:07:53;;;;;;;;;;;;;;;;;;2096280;28;44452;-87
2021/09/20 00:08:54;;;;;;;;;;;;;;;;;;2104596;28;45422;-87
2021/09/20 00:09:55;;;;;;;;;;;;;;;;;;2104548;28;46034;-87
2021/09/20 00:10:57;;;;;;;;;;;;;;;;;;2096304;28;45797;-87
2021/09/20 00:11:59;;;;;;;;;;;;;;;;;;2087750;28;44916;-90
2021/09/20 00:13:00;;;;;;;;;;;;;;;;;;2096532;28;45813;-87
2021/09/20 00:14:10;;;;;;;;;;;;;;;;;;2103099;28;47923;-88
2021/09/20 00:15:12;;;;;;;;;;;;;;;;;;2096315;28;44614;-86
2021/09/20 00:16:14;;;;;;;;;;;;;;;;;;2096165;28;45966;-87
2021/09/20 00:17:15;;;;;;;;;;;;;;;;;;2104074;28;44473;-88
2021/09/20 00:18:18;;;;;;;;;;;;;;;;;;2104332;28;45870;-88
2021/09/20 00:19:19;;;;;;;;;;;;;;;;;;2096130;28;45992;-88
2021/09/20 00:20:22;;;;;;;;;;;;;;;;;;2096288;28;45967;-86
2021/09/20 00:21:24;;;;;;;;;;;;;;;;;;2096143;28;47048;-88
2021/09/20 00:22:26;;;;;;;;;;;;;;;;;;2096285;28;44452;-87
2021/09/20 00:23:27;;;;;;;;;;;;;;;;;;2096324;28;43547;-86
2021/09/20 00:24:29;;;;;;;;;;;;;;;;;;2096345;28;46363;-89
2021/09/20 00:25:30;;;;;;;;;;;;;;;;;;2089816;28;44396;-88
2021/09/20 00:26:32;;;;;;;;;;;;;;;;;;2087994;28;46142;-88
2021/09/20 00:27:33;;;;;;;;;;;;;;;;;;2096165;28;45842;-87
2021/09/20 00:28:35;;;;;;;;;;;;;;;;;;2088047;28;44122;-88
2021/09/20 00:29:37;;;;;;;;;;;;;;;;;;2079819;28;44589;-87
2021/09/20 00:30:40;;;;;;;;;;;;;;;;;;2088528;28;46159;-86
2021/09/20 00:31:42;;;;;;;;;;;;;;;;;;2087957;28;45462;-85
2021/09/20 00:32:43;;;;;;;;;;;;;;;;;;2080141;28;43148;-85
2021/09/20 00:33:45;;;;;;;;;;;;;;;;;;2088113;28;44943;-87
2021/09/20 00:34:46;;;;;;;;;;;;;;;;;;2096163;28;45359;-84
2021/09/20 00:35:47;;;;;;;;;;;;;;;;;;2088163;28;43103;-86
2021/09/20 00:36:49;;;;;;;;;;;;;;;;;;2088113;28;43842;-86
2021/09/20 00:37:51;;;;;;;;;;;;;;;;;;2095966;28;43462;-86
2021/09/20 00:38:52;;;;;;;;;;;;;;;;;;2096173;28;45036;-91
2021/09/20 00:39:54;;;;;;;;;;;;;;;;;;2087922;28;43836;-88
2021/09/20 00:40:56;;;;;;;;;;;;;;;;;;2079908;28;43619;-86
2021/09/20 00:41:57;;;;;;;;;;;;;;;;;;2087998;28;43646;-87
2021/09/20 00:42:58;;;;;;;;;;;;;;;;;;2096174;28;44837;-87
2021/09/20 00:44:01;;;;;;;;;;;;;;;;;;2087723;28;43770;-87
2021/09/20 00:45:03;;;;;;;;;;;;;;;;;;2088412;28;43801;-87
2021/09/20 00:46:06;;;;;;;;;;;;;;;;;;2087882;28;46663;-87
2021/09/20 00:47:07;;;;;;;;;;;;;;;;;;2079737;28;45873;-85
2021/09/20 00:48:09;;;;;;;;;;;;;;;;;;2087520;28;45463;-89
2021/09/20 00:49:10;;;;;;;;;;;;;;;;;;2087863;28;44078;-85
2021/09/20 00:50:12;;;;;;;;;;;;;;;;;;2088004;28;43229;-86
2021/09/20 00:51:13;;;;;;;;;;;;;;;;;;2088056;28;44062;-86
2021/09/20 00:52:15;;;;;;;;;;;;;;;;;;2079882;28;44419;-88
2021/09/20 00:53:16;;;;;;;;;;;;;;;;;;2087996;28;43659;-88
2021/09/20 00:54:18;;;;;;;;;;;;;;;;;;2095672;28;47211;-88
2021/09/20 00:55:19;;;;;;;;;;;;;;;;;;2092847;28;45392;-87
2021/09/20 00:56:22;;;;;;;;;;;;;;;;;;2096083;28;45944;-88
2021/09/20 00:57:23;;;;;;;;;;;;;;;;;;2095855;28;44365;-87
2021/09/20 00:58:25;;;;;;;;;;;;;;;;;;2095914;28;43706;-88
2021/09/20 00:59:26;;;;;;;;;;;;;;;;;;2095829;28;45287;-89
2021/09/20 01:00:28;;;;;;;;;;;;;;;;;;2096003;28;47569;-89
2021/09/20 01:01:29;;;;;;;;;;;;;;;;;;2095905;28;41775;-86
2021/09/20 01:02:31;;;;;;;;;;;;;;;;;;2095830;28;44137;-85
2021/09/20 01:03:33;;;;;;;;;;;;;;;;;;2096408;28;45200;-88
2021/09/20 01:04:35;;;;;;;;;;;;;;;;;;2096337;28;45337;-87
2021/09/20 01:05:37;;;;;;;;;;;;;;;;;;2096263;28;44292;-85
2021/09/20 01:06:38;;;;;;;;;;;;;;;;;;2104290;28;44270;-86
2021/09/20 01:07:40;;;;;;;;;;;;;;;;;;2103885;28;45676;-86
2021/09/20 01:08:41;;;;;;;;;;;;;;;;;;2095926;28;45552;-89
2021/09/20 01:09:44;;;;;;;;;;;;;;;;;;2095624;28;44218;-86
2021/09/20 01:10:45;;;;;;;;;;;;;;;;;;2096043;28;45572;-88
2021/09/20 01:11:47;;;;;;;;;;;;;;;;;;2095772;28;44587;-86
2021/09/20 01:12:49;;;;;;;;;;;;;;;;;;2087882;28;45613;-87
2021/09/20 01:13:50;;;;;;;;;;;;;;;;;;2096204;28;43555;-88
2021/09/20 01:14:54;;;;;;;;;;;;;;;;;;2095730;28;45120;-87
2021/09/20 01:15:55;;;;;;;;;;;;;;;;;;2095865;28;44742;-88
2021/09/20 01:16:57;;;;;;;;;;;;;;;;;;2095975;28;46102;-88
2021/09/20 01:17:58;;;;;;;;;;;;;;;;;;2095912;28;45347;-86
2021/09/20 01:19:00;;;;;;;;;;;;;;;;;;2095882;28;46147;-88
2021/09/20 01:20:03;;;;;;;;;;;;;;;;;;2095539;28;45851;-87
2021/09/20 01:21:04;;;;;;;;;;;;;;;;;;2095793;28;45093;-85
2021/09/20 01:22:15;;;;;;;;;;;;;;;;;;2095721;28;44237;-85
2021/09/20 01:23:18;;;;;;;;;;;;;;;;;;2095957;28;44998;-87
2021/09/20 01:24:19;;;;;;;;;;;;;;;;;;2095659;28;45995;-86
2021/09/20 01:25:21;;;;;;;;;;;;;;;;;;2090727;28;45925;-86
2021/09/20 01:26:23;;;;;;;;;;;;;;;;;;2087684;28;45921;-88
2021/09/20 01:27:25;;;;;;;;;;;;;;;;;;2087384;28;44383;-85
2021/09/20 01:28:26;;;;;;;;;;;;;;;;;;2088305;28;46163;-89
2021/09/20 01:29:28;;;;;;;;;;;;;;;;;;2096987;28;45442;-88
2021/09/20 01:30:29;;;;;;;;;;;;;;;;;;2088890;28;46077;-86
2021/09/20 01:31:31;;;;;;;;;;;;;;;;;;2089285;28;45305;-87
2021/09/20 01:32:33;;;;;;;;;;;;;;;;;;2089035;28;44886;-85
2021/09/20 01:33:34;;;;;;;;;;;;;;;;;;2081008;28;44690;-88
2021/09/20 01:34:35;;;;;;;;;;;;;;;;;;2089101;28;44890;-84
2021/09/20 01:35:37;;;;;;;;;;;;;;;;;;2089093;28;45848;-86
2021/09/20 01:36:38;;;;;;;;;;;;;;;;;;2089433;28;44961;-85
2021/09/20 01:37:40;;;;;;;;;;;;;;;;;;2089008;28;44867;-86
2021/09/20 01:38:41;;;;;;;;;;;;;;;;;;2089092;28;45619;-87
2021/09/20 01:39:43;;;;;;;;;;;;;;;;;;2088877;28;44333;-87
2021/09/20 01:40:45;;;;;;;;;;;;;;;;;;2089429;28;43523;-87
2021/09/20 01:41:47;;;;;;;;;;;;;;;;;;2089172;28;45246;-86
2021/09/20 01:42:49;;;;;;;;;;;;;;;;;;2089385;28;45406;-86
2021/09/20 01:43:50;;;;;;;;;;;;;;;;;;2088756;28;45370;-89
2021/09/20 01:44:52;;;;;;;;;;;;;;;;;;2089283;28;44049;-85
2021/09/20 01:45:53;;;;;;;;;;;;;;;;;;2097306;28;44317;-88
2021/09/20 01:46:56;;;;;;;;;;;;;;;;;;2097196;28;43501;-85
2021/09/20 01:47:58;;;;;;;;;;;;;;;;;;2080636;28;43395;-87
2021/09/20 01:49:00;;;;;;;;;;;;;;;;;;2089157;28;45179;-87
2021/09/20 01:50:02;;;;;;;;;;;;;;;;;;2097022;28;43668;-88
2021/09/20 01:51:04;;;;;;;;;;;;;;;;;;2097123;28;45429;-86
2021/09/20 01:52:05;;;;;;;;;;;;;;;;;;2080710;28;45331;-86
2021/09/20 01:53:07;;;;;;;;;;;;;;;;;;2088939;28;44365;-87
2021/09/20 01:54:11;;;;;;;;;;;;;;;;;;2089177;28;45670;-85
2021/09/20 01:55:13;;;;;;;;;;;;;;;;;;2084773;28;44144;-89
2021/09/20 01:56:15;;;;;;;;;;;;;;;;;;2080629;28;44253;-87
2021/09/20 01:57:17;;;;;;;;;;;;;;;;;;2088572;28;42867;-87
2021/09/20 01:58:18;;;;;;;;;;;;;;;;;;2088622;28;45168;-87
2021/09/20 01:59:20;;;;;;;;;;;;;;;;;;2088714;28;45853;-87
2021/09/20 02:00:22;;;;;;;;;;;;;;;;;;2088464;28;45279;-87
2021/09/20 02:01:25;;;;;;;;;;;;;;;;;;2080889;28;45881;-89
2021/09/20 02:02:26;;;;;;;;;;;;;;;;;;2080517;28;44139;-86
2021/09/20 02:03:28;;;;;;;;;;;;;;;;;;2080757;28;44428;-86
2021/09/20 02:04:30;;;;;;;;;;;;;;;;;;2088865;28;44297;-86
2021/09/20 02:05:31;;;;;;;;;;;;;;;;;;2088820;28;45358;-86
2021/09/20 02:06:33;;;;;;;;;;;;;;;;;;2088729;28;48032;-88
2021/09/20 02:07:35;;;;;;;;;;;;;;;;;;2080598;28;45527;-88
2021/09/20 02:08:37;;;;;;;;;;;;;;;;;;2080542;28;45400;-90
2021/09/20 02:09:38;;;;;;;;;;;;;;;;;;2080219;28;44444;-89
2021/09/20 02:10:40;;;;;;;;;;;;;;;;;;2080549;28;47088;-88
2021/09/20 02:11:41;;;;;;;;;;;;;;;;;;2080608;28;45999;-91
2021/09/20 02:12:43;;;;;;;;;;;;;;;;;;2080729;28;45226;-89
2021/09/20 02:13:44;;;;;;;;;;;;;;;;;;2080119;28;44757;-90
2021/09/20 02:14:46;;;;;;;;;;;;;;;;;;2080604;28;45321;-90
2021/09/20 02:15:47;;;;;;;;;;;;;;;;;;2080726;28;44754;-88
2021/09/20 02:16:49;;;;;;;;;;;;;;;;;;2088995;28;43717;-89
2021/09/20 02:17:50;;;;;;;;;;;;;;;;;;2088562;28;44046;-89
2021/09/20 02:18:52;;;;;;;;;;;;;;;;;;2088797;28;45095;-89
2021/09/20 02:19:53;;;;;;;;;;;;;;;;;;2088851;28;45305;-86
2021/09/20 02:20:55;;;;;;;;;;;;;;;;;;2088822;28;44819;-85
2021/09/20 02:21:56;;;;;;;;;;;;;;;;;;2080320;28;45224;-86
2021/09/20 02:22:58;;;;;;;;;;;;;;;;;;2080446;28;44428;-88
2021/09/20 02:23:59;;;;;;;;;;;;;;;;;;2088722;28;44977;-90
2021/09/20 02:25:07;;;;;;;;;;;;;;;;;;2082508;28;44766;-87
2021/09/20 02:26:09;;;;;;;;;;;;;;;;;;2088651;28;43684;-91
2021/09/20 02:27:10;;;;;;;;;;;;;;;;;;2088717;28;45688;-87
2021/09/20 02:28:12;;;;;;;;;;;;;;;;;;2088337;28;42823;-87
2021/09/20 02:29:13;;;;;;;;;;;;;;;;;;2088620;28;45938;-89
2021/09/20 02:30:14;;;;;;;;;;;;;;;;;;2080421;28;44694;-88
2021/09/20 02:31:16;;;;;;;;;;;;;;;;;;2088815;28;46122;-85
2021/09/20 02:32:17;;;;;;;;;;;;;;;;;;2096802;28;45835;-87
2021/09/20 02:33:19;;;;;;;;;;;;;;;;;;2096894;28;44259;-85
2021/09/20 02:34:21;;;;;;;;;;;;;;;;;;2096927;28;45916;-88
2021/09/20 02:35:22;;;;;;;;;;;;;;;;;;2088743;28;44925;-87
2021/09/20 02:36:23;;;;;;;;;;;;;;;;;;2088827;28;44722;-89
2021/09/20 02:37:25;;;;;;;;;;;;;;;;;;2089213;28;44452;-86
2021/09/20 02:38:27;;;;;;;;;;;;;;;;;;2088892;28;45234;-85
2021/09/20 02:39:28;;;;;;;;;;;;;;;;;;2088053;28;44314;-89
2021/09/20 02:40:30;;;;;;;;;;;;;;;;;;2088411;28;45719;-86
2021/09/20 02:41:31;;;;;;;;;;;;;;;;;;2088494;28;44610;-87
2021/09/20 02:42:33;;;;;;;;;;;;;;;;;;2080674;28;45923;-86
2021/09/20 02:43:35;;;;;;;;;;;;;;;;;;2088614;28;44123;-88
2021/09/20 02:44:36;;;;;;;;;;;;;;;;;;2088412;28;43903;-89
2021/09/20 02:45:37;;;;;;;;;;;;;;;;;;2088818;28;45360;-88
2021/09/20 02:46:40;;;;;;;;;;;;;;;;;;2088739;28;45401;-90
2021/09/20 02:47:42;;;;;;;;;;;;;;;;;;2080355;28;44385;-89
2021/09/20 02:48:43;;;;;;;;;;;;;;;;;;2088945;28;43598;-87
2021/09/20 02:49:44;;;;;;;;;;;;;;;;;;2088378;28;44458;-89
2021/09/20 02:50:46;;;;;;;;;;;;;;;;;;2089014;28;44973;-86
2021/09/20 02:51:47;;;;;;;;;;;;;;;;;;2096642;28;43907;-89
2021/09/20 02:52:49;;;;;;;;;;;;;;;;;;2088661;28;45789;-90
2021/09/20 02:53:50;;;;;;;;;;;;;;;;;;2088535;28;45078;-87
2021/09/20 02:54:52;;;;;;;;;;;;;;;;;;2090031;28;44301;-88
2021/09/20 02:55:53;;;;;;;;;;;;;;;;;;2096843;28;45381;-90
2021/09/20 02:56:55;;;;;;;;;;;;;;;;;;2096868;28;45530;-89
2021/09/20 02:57:56;;;;;;;;;;;;;;;;;;2104568;28;43917;-86
2021/09/20 02:58:58;;;;;;;;;;;;;;;;;;2105323;28;43678;-87
2021/09/20 03:00:00;;;;;;;;;;;;;;;;;;2104846;28;43500;-87
2021/09/20 03:01:01;;;;;;;;;;;;;;;;;;2105221;28;43646;-89
2021/09/20 03:02:03;;;;;;;;;;;;;;;;;;2105072;28;43604;-86
2021/09/20 03:03:07;;;;;;;;;;;;;;;;;;2096952;28;45196;-87
2021/09/20 03:04:08;;;;;;;;;;;;;;;;;;2097066;28;43884;-89
2021/09/20 03:05:10;;;;;;;;;;;;;;;;;;2096820;28;42521;-89
2021/09/20 03:06:12;;;;;;;;;;;;;;;;;;2096596;28;44982;-87
2021/09/20 03:07:13;;;;;;;;;;;;;;;;;;2096702;28;44019;-87
2021/09/20 03:08:15;;;;;;;;;;;;;;;;;;2096350;28;45792;-87
2021/09/20 03:09:16;;;;;;;;;;;;;;;;;;2096534;28;44877;-89
2021/09/20 03:10:17;;;;;;;;;;;;;;;;;;2096471;28;45365;-89
2021/09/20 03:11:21;;;;;;;;;;;;;;;;;;2097067;28;45669;-88
2021/09/20 03:12:24;;;;;;;;;;;;;;;;;;2104963;28;45629;-89
2021/09/20 03:13:25;;;;;;;;;;;;;;;;;;2105248;28;43819;-88
2021/09/20 03:14:27;;;;;;;;;;;;;;;;;;2096675;28;45880;-89
2021/09/20 03:15:28;;;;;;;;;;;;;;;;;;2096474;28;44116;-86
2021/09/20 03:16:30;;;;;;;;;;;;;;;;;;2096566;28;44501;-90
2021/09/20 03:17:31;;;;;;;;;;;;;;;;;;2096502;28;44298;-87
2021/09/20 03:18:34;;;;;;;;;;;;;;;;;;2097000;28;45523;-86
2021/09/20 03:19:35;;;;;;;;;;;;;;;;;;2104608;28;46376;-87
2021/09/20 03:20:37;;;;;;;;;;;;;;;;;;2105076;28;45503;-87
2021/09/20 03:21:38;;;;;;;;;;;;;;;;;;2104836;28;44158;-86
2021/09/20 03:22:39;;;;;;;;;;;;;;;;;;2096663;28;44597;-86
2021/09/20 03:23:41;;;;;;;;;;;;;;;;;;2096885;28;45320;-85
2021/09/20 03:24:45;;;;;;;;;;;;;;;;;;2096431;28;46032;-87
2021/09/20 03:25:47;;;;;;;;;;;;;;;;;;2080867;28;45682;-87
2021/09/20 03:26:48;;;;;;;;;;;;;;;;;;2080068;28;44040;-87
2021/09/20 03:27:50;;;;;;;;;;;;;;;;;;2087981;28;44512;-86
2021/09/20 03:28:51;;;;;;;;;;;;;;;;;;2088265;28;45524;-87
2021/09/20 03:29:53;;;;;;;;;;;;;;;;;;2088206;28;44770;-86
2021/09/20 03:30:54;;;;;;;;;;;;;;;;;;2088379;28;44511;-87
2021/09/20 03:31:56;;;;;;;;;;;;;;;;;;2080297;28;45436;-88
2021/09/20 03:32:57;;;;;;;;;;;;;;;;;;2080618;28;46485;-86
2021/09/20 03:33:59;;;;;;;;;;;;;;;;;;2088734;28;46079;-86
2021/09/20 03:35:00;;;;;;;;;;;;;;;;;;2096846;28;46309;-91
2021/09/20 03:36:02;;;;;;;;;;;;;;;;;;2089019;28;46359;-86
2021/09/20 03:37:03;;;;;;;;;;;;;;;;;;2089655;28;45766;-86
2021/09/20 03:38:05;;;;;;;;;;;;;;;;;;2097634;28;46109;-87
2021/09/20 03:39:07;;;;;;;;;;;;;;;;;;2091698;28;46079;-85
2021/09/20 03:40:09;;;;;;;;;;;;;;;;;;2091889;28;44336;-83
2021/09/20 03:41:11;;;;;;;;;;;;;;;;;;2092673;28;46228;-86
2021/09/20 03:42:12;;;;;;;;;;;;;;;;;;2091896;28;44400;-85
2021/09/20 03:43:14;;;;;;;;;;;;;;;;;;2083930;28;45015;-83
2021/09/20 03:44:15;;;;;;;;;;;;;;;;;;2092057;28;45599;-84
2021/09/20 03:45:16;;;;;;;;;;;;;;;;;;2100633;28;44199;-87
2021/09/20 03:46:18;;;;;;;;;;;;;;;;;;2092494;28;44751;-85
2021/09/20 03:47:19;;;;;;;;;;;;;;;;;;2092364;28;45628;-85
2021/09/20 03:48:21;;;;;;;;;;;;;;;;;;2092301;28;46195;-84
2021/09/20 03:49:22;;;;;;;;;;;;;;;;;;2100337;28;44866;-85
2021/09/20 03:50:24;;;;;;;;;;;;;;;;;;2098477;28;45197;-85
2021/09/20 03:51:25;;;;;;;;;;;;;;;;;;2092123;28;42726;-86
2021/09/20 03:52:27;;;;;;;;;;;;;;;;;;2092371;28;45918;-86
2021/09/20 03:53:28;;;;;;;;;;;;;;;;;;2092740;28;44389;-84
2021/09/20 03:54:30;;;;;;;;;;;;;;;;;;2092760;28;45534;-86
2021/09/20 03:55:32;;;;;;;;;;;;;;;;;;2092392;28;44212;-87
2021/09/20 03:56:33;;;;;;;;;;;;;;;;;;2092837;28;45059;-85
2021/09/20 03:57:35;;;;;;;;;;;;;;;;;;2099711;28;43885;-87
2021/09/20 03:58:37;;;;;;;;;;;;;;;;;;2099283;28;43852;-88
2021/09/20 03:59:39;;;;;;;;;;;;;;;;;;2089789;28;45403;-85
2021/09/20 04:00:40;;;;;;;;;;;;;;;;;;2091170;28;45401;-85
2021/09/20 04:01:42;;;;;;;;;;;;;;;;;;2091754;28;45618;-83
2021/09/20 04:02:43;;;;;;;;;;;;;;;;;;2100242;28;45297;-87
2021/09/20 04:03:45;;;;;;;;;;;;;;;;;;2100146;28;45289;-87
2021/09/20 04:04:46;;;;;;;;;;;;;;;;;;2091681;28;43943;-88
2021/09/20 04:05:48;;;;;;;;;;;;;;;;;;2091705;28;44349;-87
2021/09/20 04:06:50;;;;;;;;;;;;;;;;;;2100035;28;43656;-86
2021/09/20 04:07:51;;;;;;;;;;;;;;;;;;2099347;28;44129;-87
2021/09/20 04:08:55;;;;;;;;;;;;;;;;;;2099031;28;45292;-90
2021/09/20 04:09:57;;;;;;;;;;;;;;;;;;2096283;28;45483;-89
2021/09/20 04:10:58;;;;;;;;;;;;;;;;;;2088041;28;44188;-89
2021/09/20 04:12:00;;;;;;;;;;;;;;;;;;2088285;28;44390;-89
2021/09/20 04:13:01;;;;;;;;;;;;;;;;;;2096459;28;44732;-88
2021/09/20 04:14:03;;;;;;;;;;;;;;;;;;2088816;28;44237;-89
2021/09/20 04:15:05;;;;;;;;;;;;;;;;;;2096495;28;45448;-88
2021/09/20 04:16:06;;;;;;;;;;;;;;;;;;2096471;28;44245;-88
2021/09/20 04:17:08;;;;;;;;;;;;;;;;;;2096200;28;45292;-87
2021/09/20 04:18:10;;;;;;;;;;;;;;;;;;2087548;28;42178;-87
2021/09/20 04:19:11;;;;;;;;;;;;;;;;;;2088090;28;44328;-89
2021/09/20 04:20:12;;;;;;;;;;;;;;;;;;2088079;28;43813;-88
2021/09/20 04:21:14;;;;;;;;;;;;;;;;;;2088218;28;44327;-87
2021/09/20 04:22:16;;;;;;;;;;;;;;;;;;2087969;28;45573;-90
2021/09/20 04:23:18;;;;;;;;;;;;;;;;;;2088101;28;44262;-88
2021/09/20 04:24:20;;;;;;;;;;;;;;;;;;2087868;28;45228;-88
2021/09/20 04:25:21;;;;;;;;;;;;;;;;;;2087584;28;44397;-90
2021/09/20 04:26:22;;;;;;;;;;;;;;;;;;2088156;28;46971;-87
2021/09/20 04:27:24;;;;;;;;;;;;;;;;;;2088070;28;45235;-87
2021/09/20 04:28:25;;;;;;;;;;;;;;;;;;2095838;28;44625;-88
2021/09/20 04:29:27;;;;;;;;;;;;;;;;;;2096080;28;44484;-89
2021/09/20 04:30:28;;;;;;;;;;;;;;;;;;2087826;28;44742;-88
2021/09/20 04:31:30;;;;;;;;;;;;;;;;;;2088195;28;45831;-87
2021/09/20 04:32:31;;;;;;;;;;;;;;;;;;2096104;28;45289;-90
2021/09/20 04:33:33;;;;;;;;;;;;;;;;;;2096062;28;44576;-89
2021/09/20 04:34:34;;;;;;;;;;;;;;;;;;2087979;28;44101;-88
2021/09/20 04:35:36;;;;;;;;;;;;;;;;;;2087955;28;44588;-89
2021/09/20 04:36:37;;;;;;;;;;;;;;;;;;2087840;28;45058;-88
2021/09/20 04:37:39;;;;;;;;;;;;;;;;;;2087636;28;43709;-88
2021/09/20 04:38:41;;;;;;;;;;;;;;;;;;2094980;28;44579;-88
2021/09/20 04:39:42;;;;;;;;;;;;;;;;;;2088015;28;44386;-88
2021/09/20 04:40:44;;;;;;;;;;;;;;;;;;2087806;28;44072;-88
2021/09/20 04:41:45;;;;;;;;;;;;;;;;;;2087666;28;45764;-86
2021/09/20 04:42:46;;;;;;;;;;;;;;;;;;2087601;28;46033;-89
2021/09/20 04:43:48;;;;;;;;;;;;;;;;;;2087869;28;44533;-87
2021/09/20 04:44:49;;;;;;;;;;;;;;;;;;2088127;28;45786;-86
2021/09/20 04:45:51;;;;;;;;;;;;;;;;;;2087774;28;44323;-90
2021/09/20 04:46:52;;;;;;;;;;;;;;;;;;2087183;28;45479;-91
2021/09/20 04:47:54;;;;;;;;;;;;;;;;;;2095727;28;46239;-88
2021/09/20 04:48:55;;;;;;;;;;;;;;;;;;2095965;28;46309;-90
2021/09/20 04:49:57;;;;;;;;;;;;;;;;;;2095831;28;48332;-87
2021/09/20 04:50:58;;;;;;;;;;;;;;;;;;2096315;28;44343;-90
2021/09/20 04:52:00;;;;;;;;;;;;;;;;;;2095991;28;45812;-90
2021/09/20 04:53:01;;;;;;;;;;;;;;;;;;2087871;28;45705;-91
2021/09/20 04:54:03;;;;;;;;;;;;;;;;;;2088178;28;44072;-90
2021/09/20 04:55:04;;;;;;;;;;;;;;;;;;2085327;28;43693;-88
2021/09/20 04:56:06;;;;;;;;;;;;;;;;;;2087889;28;45266;-90
2021/09/20 04:57:07;;;;;;;;;;;;;;;;;;2087694;28;44975;-88
2021/09/20 04:58:10;;;;;;;;;;;;;;;;;;2079535;28;44325;-87
2021/09/20 04:59:11;;;;;;;;;;;;;;;;;;2087931;28;45129;-87
2021/09/20 05:00:13;;;;;;;;;;;;;;;;;;2087327;28;45617;-88
2021/09/20 05:01:15;;;;;;;;;;;;;;;;;;2087403;28;45711;-87
2021/09/20 05:02:19;;;;;;;;;;;;;;;;;;2087715;28;45534;-87
2021/09/20 05:03:21;;;;;;;;;;;;;;;;;;2087124;28;43412;-89
2021/09/20 05:04:22;;;;;;;;;;;;;;;;;;2087984;28;43544;-88
2021/09/20 05:05:24;;;;;;;;;;;;;;;;;;2088083;28;43941;-89
2021/09/20 05:06:25;;;;;;;;;;;;;;;;;;2087390;28;45847;-86
2021/09/20 05:07:27;;;;;;;;;;;;;;;;;;2087593;28;44665;-89
2021/09/20 05:08:28;;;;;;;;;;;;;;;;;;2087044;28;44478;-91
2021/09/20 05:09:31;;;;;;;;;;;;;;;;;;2087781;28;45567;-88
2021/09/20 05:10:32;;;;;;;;;;;;;;;;;;2087765;28;43537;-89
2021/09/20 05:11:34;;;;;;;;;;;;;;;;;;2087909;28;44271;-89
2021/09/20 05:12:35;;;;;;;;;;;;;;;;;;2087814;28;44158;-90
2021/09/20 05:13:36;;;;;;;;;;;;;;;;;;2079505;28;45238;-87
2021/09/20 05:14:38;;;;;;;;;;;;;;;;;;2087878;28;43729;-86
2021/09/20 05:15:39;;;;;;;;;;;;;;;;;;2096168;28;44912;-87
2021/09/20 05:16:41;;;;;;;;;;;;;;;;;;2095880;28;44698;-88
2021/09/20 05:17:43;;;;;;;;;;;;;;;;;;2087335;28;43992;-88
2021/09/20 05:18:45;;;;;;;;;;;;;;;;;;2079761;28;43790;-86
2021/09/20 05:19:46;;;;;;;;;;;;;;;;;;2087356;28;44976;-90
2021/09/20 05:20:48;;;;;;;;;;;;;;;;;;2087674;28;44035;-89
2021/09/20 05:21:49;;;;;;;;;;;;;;;;;;2087504;28;45857;-88
2021/09/20 05:22:51;;;;;;;;;;;;;;;;;;2087637;28;45953;-90
2021/09/20 05:23:53;;;;;;;;;;;;;;;;;;2087768;28;43969;-87
2021/09/20 05:24:54;;;;;;;;;;;;;;;;;;2087617;28;43805;-86
2021/09/20 05:25:56;;;;;;;;;;;;;;;;;;2079444;28;45583;-87
2021/09/20 05:26:57;;;;;;;;;;;;;;;;;;2087668;28;45821;-87
2021/09/20 05:27:59;;;;;;;;;;;;;;;;;;2095346;28;45756;-88
2021/09/20 05:29:00;;;;;;;;;;;;;;;;;;2095839;28;44895;-88
2021/09/20 05:30:03;;;;;;;;;;;;;;;;;;2087277;28;43837;-89
2021/09/20 05:31:04;;;;;;;;;;;;;;;;;;2087559;28;43759;-87
2021/09/20 05:32:06;;;;;;;;;;;;;;;;;;2087698;28;43761;-85
2021/09/20 05:33:07;;;;;;;;;;;;;;;;;;2088051;28;45684;-85
2021/09/20 05:34:09;;;;;;;;;;;;;;;;;;2087688;28;45509;-87
2021/09/20 05:35:11;;;;;;;;;;;;;;;;;;2095597;28;45749;-84
2021/09/20 05:36:14;;;;;;;;;;;;;;;;;;2095198;28;45829;-82
2021/09/20 05:37:15;;;;;;;;;;;;;;;;;;2088061;28;45349;-82
2021/09/20 05:38:17;;;;;;;;;;;;;;;;;;2087008;28;45929;-84
2021/09/20 05:39:22;;;;;;;;;;;;;;;;;;2095457;28;46168;-83
2021/09/20 05:40:24;;;;;;;;;;;;;;;;;;2095466;28;45937;-83
2021/09/20 05:41:27;;;;;;;;;;;;;;;;;;2095245;28;46134;-83
2021/09/20 05:42:28;;;;;;;;;;;;;;;;;;2086960;28;46207;-83
2021/09/20 05:43:31;;;;;;;;;;;;;;;;;;2087871;28;46306;-86
2021/09/20 05:44:32;;;;;;;;;;;;;;;;;;2087421;28;42912;-85
2021/09/20 05:45:33;;;;;;;;;;;;;;;;;;2087626;28;46111;-82
2021/09/20 05:46:35;;;;;;;;;;;;;;;;;;2087117;28;45100;-86
2021/09/20 05:47:37;;;;;;;;;;;;;;;;;;2086940;28;44171;-82
2021/09/20 05:48:42;;;;;;;;;;;;;;;;;;2087509;28;46058;-87
2021/09/20 05:49:43;;;;;;;;;;;;;;;;;;2087133;28;47827;-87
2021/09/20 05:50:45;;;;;;;;;;;;;;;;;;2087680;28;44325;-84
2021/09/20 05:51:46;;;;;;;;;;;;;;;;;;2087605;28;44808;-84
2021/09/20 05:52:48;;;;;;;;;;;;;;;;;;2087183;28;46050;-85
2021/09/20 05:53:49;;;;;;;;;;;;;;;;;;2087571;28;46220;-86
2021/09/20 05:54:51;;;;;;;;;;;;;;;;;;2085879;28;46451;-86
2021/09/20 05:55:53;;;;;;;;;;;;;;;;;;2078795;28;44343;-84
2021/09/20 05:56:55;;;;;;;;;;;;;;;;;;2079089;28;46136;-82
2021/09/20 05:57:57;;;;;;;;;;;;;;;;;;2078251;28;44582;-84
2021/09/20 05:58:59;;;;;;;;;;;;;;;;;;2079200;28;47164;-84
2021/09/20 06:00:01;;;;;;;;;;;;;;;;;;2079703;28;44461;-85
2021/09/20 06:01:02;;;;;;;;;;;;;;;;;;2079352;28;45554;-83
2021/09/20 06:02:04;;;;;;;;;;;;;;;;;;2079211;28;45607;-82
2021/09/20 06:03:05;;;;;;;;;;;;;;;;;;2084883;28;45457;-82
2021/09/20 06:04:07;;;;;;;;;;;;;;;;;;2087472;28;44552;-83
2021/09/20 06:05:09;;;;;;;;;;;;;;;;;;2087076;28;45699;-83
2021/09/20 06:06:11;;;;;;;;;;;;;;;;;;2087067;28;45300;-84
2021/09/20 06:07:13;;;;;;;;;;;;;;;;;;2089560;28;44871;-86
2021/09/20 06:08:14;;;;;;;;;;;;;;;;;;2086491;28;45208;-82
2021/09/20 06:09:16;;;;;;;;;;;;;;;;;;2079228;28;45814;-85
2021/09/20 06:10:18;;;;;;;;;;;;;;;;;;2079173;28;45381;-85
2021/09/20 06:11:20;;;;;;;;;;;;;;;;;;2079365;28;43866;-84
2021/09/20 06:12:21;;;;;;;;;;;;;;;;;;2087081;28;45533;-83
2021/09/20 06:13:23;;;;;;;;;;;;;;;;;;2086989;28;44106;-82
2021/09/20 06:14:25;;;;;;;;;;;;;;;;;;2078752;28;44387;-84
2021/09/20 06:15:27;;;;;;;;;;;;;;;;;;2080384;28;43963;-82
2021/09/20 06:16:29;;;;;;;;;;;;;;;;;;2080647;28;43440;-84
2021/09/20 06:17:33;;;;;;;;;;;;;;;;;;2078195;28;45344;-81
2021/09/20 06:18:35;;;;;;;;;;;;;;;;;;2080607;28;45605;-83
2021/09/20 06:19:36;;;;;;;;;;;;;;;;;;2080112;28;44850;-85
2021/09/20 06:20:40;;;;;;;;;;;;;;;;;;2084183;28;45403;-85
2021/09/20 06:21:41;;;;;;;;;;;;;;;;;;2097118;28;45316;-85
2021/09/20 06:22:43;;;;;;;;;;;;;;;;;;2096668;28;44745;-81
2021/09/20 06:23:44;;;;;;;;;;;;;;;;;;2088479;28;43988;-82
2021/09/20 06:24:46;;;;;;;;;;;;;;;;;;2087310;28;44409;-89
2021/09/20 06:25:48;;;;;;;;;;;;;;;;;;2088148;28;45895;-82
2021/09/20 06:26:49;;;;;;;;;;;;;;;;;;2088222;28;45655;-81
2021/09/20 06:27:52;;;;;;;;;;;;;;;;;;2087964;28;45414;-80
2021/09/20 06:28:53;;;;;;;;;;;;;;;;;;2088849;28;43783;-81
2021/09/20 06:29:55;;;;;;;;;;;;;;;;;;2088465;28;45583;-80
2021/09/20 06:31:01;;;;;;;;;;;;;;;;;;2096297;28;45914;-82
2021/09/20 06:32:03;;;;;;;;;;;;;;;;;;2088053;28;44005;-80
2021/09/20 06:33:07;;;;;;;;;;;;;;;;;;2089223;28;44722;-82
2021/09/20 06:34:09;;;;;;;;;;;;;;;;;;2090332;28;44274;-86
2021/09/20 06:35:10;;;;;;;;;;;;;;;;;;2088760;28;43903;-80
2021/09/20 06:36:13;;;;;;;;;;;;;;;;;;2089696;28;46962;-84
2021/09/20 06:37:15;;;;;;;;;;;;;;;;;;2089560;28;45381;-83
2021/09/20 06:38:16;;;;;;;;;;;;;;;;;;2088747;28;44087;-82
2021/09/20 06:39:18;;;;;;;;;;;;;;;;;;2089090;28;45583;-82
2021/09/20 06:40:19;;;;;;;;;;;;;;;;;;2081289;28;44407;-82
2021/09/20 06:41:21;;;;;;;;;;;;;;;;;;2089786;28;45286;-82
2021/09/20 06:42:22;;;;;;;;;;;;;;;;;;2097505;28;43972;-82
2021/09/20 06:43:24;;;;;;;;;;;;;;;;;;2090517;28;45702;-80
2021/09/20 06:44:26;;;;;;;;;;;;;;;;;;2088254;28;44559;-84
2021/09/20 06:45:28;;;;;;;;;;;;;;;;;;2088428;28;43371;-81
2021/09/20 06:46:31;;;;;;;;;;;;;;;;;;2088157;28;44734;-83
2021/09/20 06:47:32;;;;;;;;;;;;;;;;;;2087498;28;44679;-83
2021/09/20 06:48:38;;;;;;;;;;;;;;;;;;2088677;28;45116;-85
2021/09/20 06:49:40;;;;;;;;;;;;;;;;;;2088047;28;45830;-83
2021/09/20 06:50:41;;;;;;;;;;;;;;;;;;2096446;28;46075;-87
2021/09/20 06:51:43;;;;;;;;;;;;;;;;;;2096164;28;44838;-82
2021/09/20 06:52:46;;;;;;;;;;;;;;;;;;2096200;28;45486;-81
2021/09/20 06:53:49;;;;;;;;;;;;;;;;;;2087799;28;45218;-85
2021/09/20 06:54:51;;;;;;;;;;;;;;;;;;2088499;28;45077;-82
2021/09/20 06:55:52;;;;;;;;;;;;;;;;;;2096113;28;44101;-82
2021/09/20 06:56:54;;;;;;;;;;;;;;;;;;2096549;28;45914;-83
2021/09/20 06:57:58;;;;;;;;;;;;;;;;;;2102521;28;44138;-84
2021/09/20 06:59:00;;;;;;;;;;;;;;;;;;2096295;28;44833;-81
2021/09/20 07:00:03;;;;;;;;;;;;;;;;;;2095944;28;46052;-80
2021/09/20 07:01:05;;;;;;;;;;;;;;;;;;2104741;28;46362;-81
2021/09/20 07:02:07;;;;;;;;;;;;;;;;;;2103810;28;46034;-81